Albert, Texas
Current Conditions -  °F | °C
As of 4:35 PM on Friday 24 Oct 2014 (Local Time) from KT82 Reporting Station
Scattered Clouds Scattered Clouds  
Wind Chill: 81°   Ceiling: Unl
Heat Index: 81°   Visibility: 10mi
Dew Point: 56°   Wind: 6mph
Humidity: 42%   Direction: 210°SSW
Pressure: 30.11"   Gusts: NA
Location:  30.2109°N, 98.6562°W
Report Text: KT82 242135Z AUTO 21005KT 10SM SCT050 27/13 A3011 RMK AO2 T02710133
Loading
Personal Weather Stations






























Interactive Weather Map
Tropical Storm Tracking
New forecast layout! Learn more

10-Day Weather Forecast

Advertisements
Track Severe Weather on mobile